sensor_id;sensor_type;location;lat;lon;timestamp;P1;durP1;ratioP1;P2;durP2;ratioP2
5060;SDS011;2549;52.128;21.068;2022-08-19T00:01:34;20.00;;;8.80;;
5060;SDS011;2549;52.128;21.068;2022-08-19T00:04:04;17.23;;;9.67;;
5060;SDS011;2549;52.128;21.068;2022-08-19T00:06:34;11.37;;;8.47;;
5060;SDS011;2549;52.128;21.068;2022-08-19T00:09:03;11.97;;;9.30;;
5060;SDS011;2549;52.128;21.068;2022-08-19T00:11:32;10.60;;;8.53;;
5060;SDS011;2549;52.128;21.068;2022-08-19T00:14:00;17.10;;;9.17;;
5060;SDS011;2549;52.128;21.068;2022-08-19T00:16:28;12.17;;;9.60;;
5060;SDS011;2549;52.128;21.068;2022-08-19T00:18:55;23.67;;;9.97;;
5060;SDS011;2549;52.128;21.068;2022-08-19T00:21:23;18.07;;;9.70;;
5060;SDS011;2549;52.128;21.068;2022-08-19T00:23:50;15.53;;;7.93;;
5060;SDS011;2549;52.128;21.068;2022-08-19T00:26:18;13.00;;;9.83;;
5060;SDS011;2549;52.128;21.068;2022-08-19T00:28:45;16.40;;;9.60;;
5060;SDS011;2549;52.128;21.068;2022-08-19T00:31:13;12.70;;;9.97;;
5060;SDS011;2549;52.128;21.068;2022-08-19T00:33:40;14.20;;;9.87;;
5060;SDS011;2549;52.128;21.068;2022-08-19T00:36:08;13.63;;;10.23;;
5060;SDS011;2549;52.128;21.068;2022-08-19T00:38:35;19.73;;;10.37;;
5060;SDS011;2549;52.128;21.068;2022-08-19T00:41:04;16.03;;;9.43;;
5060;SDS011;2549;52.128;21.068;2022-08-19T00:43:32;16.43;;;9.90;;
5060;SDS011;2549;52.128;21.068;2022-08-19T00:45:59;15.40;;;10.17;;
5060;SDS011;2549;52.128;21.068;2022-08-19T00:48:31;17.10;;;10.60;;
5060;SDS011;2549;52.128;21.068;2022-08-19T00:50:59;11.23;;;8.80;;
5060;SDS011;2549;52.128;21.068;2022-08-19T00:53:29;14.40;;;10.40;;
5060;SDS011;2549;52.128;21.068;2022-08-19T00:55:58;18.03;;;9.00;;
5060;SDS011;2549;52.128;21.068;2022-08-19T00:58:29;23.00;;;9.43;;
5060;SDS011;2549;52.128;21.068;2022-08-19T01:00:58;15.40;;;9.07;;
5060;SDS011;2549;52.128;21.068;2022-08-19T01:03:26;13.00;;;9.20;;
5060;SDS011;2549;52.128;21.068;2022-08-19T01:05:53;10.00;;;9.00;;
5060;SDS011;2549;52.128;21.068;2022-08-19T01:08:21;15.60;;;9.67;;
5060;SDS011;2549;52.128;21.068;2022-08-19T01:10:49;20.30;;;10.07;;
5060;SDS011;2549;52.128;21.068;2022-08-19T01:13:19;14.77;;;9.53;;
5060;SDS011;2549;52.128;21.068;2022-08-19T01:15:50;11.57;;;9.13;;
5060;SDS011;2549;52.128;21.068;2022-08-19T01:21:31;15.33;;;9.63;;
5060;SDS011;2549;52.128;21.068;2022-08-19T01:24:12;11.00;;;8.93;;
5060;SDS011;2549;52.128;21.068;2022-08-19T01:26:40;12.13;;;9.10;;
5060;SDS011;2549;52.128;21.068;2022-08-19T01:29:09;13.27;;;10.30;;
5060;SDS011;2549;52.128;21.068;2022-08-19T01:31:37;18.43;;;9.57;;
5060;SDS011;2549;52.128;21.068;2022-08-19T01:34:05;15.53;;;9.07;;
5060;SDS011;2549;52.128;21.068;2022-08-19T01:36:35;30.90;;;11.00;;
5060;SDS011;2549;52.128;21.068;2022-08-19T01:39:04;11.33;;;9.50;;
5060;SDS011;2549;52.128;21.068;2022-08-19T01:41:33;16.33;;;10.40;;
5060;SDS011;2549;52.128;21.068;2022-08-19T01:44:01;17.00;;;10.50;;
5060;SDS011;2549;52.128;21.068;2022-08-19T01:46:45;15.73;;;10.47;;
5060;SDS011;2549;52.128;21.068;2022-08-19T01:49:14;16.67;;;10.70;;
5060;SDS011;2549;52.128;21.068;2022-08-19T01:51:42;17.37;;;10.63;;
5060;SDS011;2549;52.128;21.068;2022-08-19T01:54:10;20.63;;;10.57;;
5060;SDS011;2549;52.128;21.068;2022-08-19T01:56:53;14.73;;;9.03;;
5060;SDS011;2549;52.128;21.068;2022-08-19T01:59:24;32.23;;;11.03;;
5060;SDS011;2549;52.128;21.068;2022-08-19T02:01:50;16.67;;;12.07;;
5060;SDS011;2549;52.128;21.068;2022-08-19T02:04:18;14.60;;;11.90;;
5060;SDS011;2549;52.128;21.068;2022-08-19T02:06:44;13.83;;;10.40;;
5060;SDS011;2549;52.128;21.068;2022-08-19T02:09:11;12.77;;;9.50;;
5060;SDS011;2549;52.128;21.068;2022-08-19T02:11:38;15.83;;;11.33;;
5060;SDS011;2549;52.128;21.068;2022-08-19T02:14:06;14.63;;;10.60;;
5060;SDS011;2549;52.128;21.068;2022-08-19T02:16:34;14.30;;;10.73;;
5060;SDS011;2549;52.128;21.068;2022-08-19T02:19:02;18.60;;;11.60;;
5060;SDS011;2549;52.128;21.068;2022-08-19T02:21:30;12.70;;;9.80;;
5060;SDS011;2549;52.128;21.068;2022-08-19T02:23:57;19.30;;;12.60;;
5060;SDS011;2549;52.128;21.068;2022-08-19T02:26:24;13.73;;;11.47;;
5060;SDS011;2549;52.128;21.068;2022-08-19T02:28:53;18.67;;;12.20;;
5060;SDS011;2549;52.128;21.068;2022-08-19T02:31:21;30.53;;;12.70;;
5060;SDS011;2549;52.128;21.068;2022-08-19T02:33:51;14.50;;;11.43;;
5060;SDS011;2549;52.128;21.068;2022-08-19T02:36:22;12.80;;;11.00;;
5060;SDS011;2549;52.128;21.068;2022-08-19T02:38:50;13.30;;;10.67;;
5060;SDS011;2549;52.128;21.068;2022-08-19T02:41:25;10.80;;;9.67;;
5060;SDS011;2549;52.128;21.068;2022-08-19T02:43:57;15.30;;;10.30;;
5060;SDS011;2549;52.128;21.068;2022-08-19T02:46:46;18.17;;;11.37;;
5060;SDS011;2549;52.128;21.068;2022-08-19T02:49:13;18.23;;;11.13;;
5060;SDS011;2549;52.128;21.068;2022-08-19T02:51:43;11.73;;;9.93;;
5060;SDS011;2549;52.128;21.068;2022-08-19T02:54:11;16.33;;;10.77;;
5060;SDS011;2549;52.128;21.068;2022-08-19T02:56:40;13.57;;;10.93;;
5060;SDS011;2549;52.128;21.068;2022-08-19T02:59:09;17.27;;;11.23;;
5060;SDS011;2549;52.128;21.068;2022-08-19T03:01:39;16.43;;;10.63;;
5060;SDS011;2549;52.128;21.068;2022-08-19T03:04:08;14.17;;;10.43;;
5060;SDS011;2549;52.128;21.068;2022-08-19T03:06:38;13.03;;;11.00;;
5060;SDS011;2549;52.128;21.068;2022-08-19T03:09:07;13.80;;;11.30;;
5060;SDS011;2549;52.128;21.068;2022-08-19T03:11:35;17.00;;;10.60;;
5060;SDS011;2549;52.128;21.068;2022-08-19T03:14:02;12.77;;;10.57;;
5060;SDS011;2549;52.128;21.068;2022-08-19T03:16:32;13.80;;;10.60;;
5060;SDS011;2549;52.128;21.068;2022-08-19T03:19:01;13.87;;;10.90;;
5060;SDS011;2549;52.128;21.068;2022-08-19T03:21:31;17.60;;;11.03;;
5060;SDS011;2549;52.128;21.068;2022-08-19T03:24:00;15.10;;;11.57;;
5060;SDS011;2549;52.128;21.068;2022-08-19T03:26:29;15.67;;;11.53;;
5060;SDS011;2549;52.128;21.068;2022-08-19T03:28:56;21.70;;;10.90;;
5060;SDS011;2549;52.128;21.068;2022-08-19T03:31:24;13.67;;;10.50;;
5060;SDS011;2549;52.128;21.068;2022-08-19T03:34:13;13.87;;;11.53;;
5060;SDS011;2549;52.128;21.068;2022-08-19T03:36:43;14.10;;;10.10;;
5060;SDS011;2549;52.128;21.068;2022-08-19T03:39:12;14.13;;;11.50;;
5060;SDS011;2549;52.128;21.068;2022-08-19T03:41:40;18.53;;;10.90;;
5060;SDS011;2549;52.128;21.068;2022-08-19T03:44:15;12.93;;;11.47;;
5060;SDS011;2549;52.128;21.068;2022-08-19T03:46:45;19.37;;;11.83;;
5060;SDS011;2549;52.128;21.068;2022-08-19T03:49:14;14.83;;;10.47;;
5060;SDS011;2549;52.128;21.068;2022-08-19T03:51:44;13.53;;;11.90;;
5060;SDS011;2549;52.128;21.068;2022-08-19T03:54:13;19.30;;;11.73;;
5060;SDS011;2549;52.128;21.068;2022-08-19T03:56:42;15.10;;;10.50;;
5060;SDS011;2549;52.128;21.068;2022-08-19T03:59:13;16.53;;;11.50;;
5060;SDS011;2549;52.128;21.068;2022-08-19T04:01:41;15.73;;;10.93;;
5060;SDS011;2549;52.128;21.068;2022-08-19T04:04:09;15.37;;;11.73;;
5060;SDS011;2549;52.128;21.068;2022-08-19T04:06:36;15.60;;;11.97;;
5060;SDS011;2549;52.128;21.068;2022-08-19T04:09:06;22.70;;;12.17;;
5060;SDS011;2549;52.128;21.068;2022-08-19T04:11:45;21.67;;;12.03;;
5060;SDS011;2549;52.128;21.068;2022-08-19T04:14:17;25.93;;;11.83;;
5060;SDS011;2549;52.128;21.068;2022-08-19T04:16:46;12.03;;;10.73;;
5060;SDS011;2549;52.128;21.068;2022-08-19T04:19:14;23.10;;;11.17;;
5060;SDS011;2549;52.128;21.068;2022-08-19T04:21:43;19.20;;;11.70;;
5060;SDS011;2549;52.128;21.068;2022-08-19T04:24:12;15.93;;;11.80;;
5060;SDS011;2549;52.128;21.068;2022-08-19T04:26:39;15.13;;;12.10;;
5060;SDS011;2549;52.128;21.068;2022-08-19T04:29:07;15.00;;;12.20;;
5060;SDS011;2549;52.128;21.068;2022-08-19T04:31:40;19.43;;;11.50;;
5060;SDS011;2549;52.128;21.068;2022-08-19T04:34:08;17.23;;;11.90;;
5060;SDS011;2549;52.128;21.068;2022-08-19T04:36:39;22.43;;;11.73;;
5060;SDS011;2549;52.128;21.068;2022-08-19T04:39:09;17.60;;;11.20;;
5060;SDS011;2549;52.128;21.068;2022-08-19T04:41:38;18.03;;;11.43;;
5060;SDS011;2549;52.128;21.068;2022-08-19T04:44:24;16.93;;;11.83;;
5060;SDS011;2549;52.128;21.068;2022-08-19T04:46:51;15.10;;;12.83;;
5060;SDS011;2549;52.128;21.068;2022-08-19T04:49:19;22.00;;;12.67;;
5060;SDS011;2549;52.128;21.068;2022-08-19T04:51:51;22.17;;;12.70;;
5060;SDS011;2549;52.128;21.068;2022-08-19T04:54:21;18.97;;;12.70;;
5060;SDS011;2549;52.128;21.068;2022-08-19T04:57:04;21.27;;;11.30;;
5060;SDS011;2549;52.128;21.068;2022-08-19T04:59:33;18.20;;;12.20;;
5060;SDS011;2549;52.128;21.068;2022-08-19T05:02:01;16.30;;;11.17;;
5060;SDS011;2549;52.128;21.068;2022-08-19T05:04:29;28.50;;;12.27;;
5060;SDS011;2549;52.128;21.068;2022-08-19T05:06:58;30.57;;;12.53;;
5060;SDS011;2549;52.128;21.068;2022-08-19T05:09:28;24.23;;;12.40;;
5060;SDS011;2549;52.128;21.068;2022-08-19T05:12:15;15.30;;;12.10;;
5060;SDS011;2549;52.128;21.068;2022-08-19T05:14:43;16.03;;;12.23;;
5060;SDS011;2549;52.128;21.068;2022-08-19T05:17:11;18.63;;;11.00;;
5060;SDS011;2549;52.128;21.068;2022-08-19T05:19:53;16.93;;;11.10;;
5060;SDS011;2549;52.128;21.068;2022-08-19T05:22:39;18.67;;;11.77;;
5060;SDS011;2549;52.128;21.068;2022-08-19T05:25:08;12.10;;;8.70;;
5060;SDS011;2549;52.128;21.068;2022-08-19T05:27:41;14.07;;;10.73;;
5060;SDS011;2549;52.128;21.068;2022-08-19T05:30:09;25.67;;;11.20;;
5060;SDS011;2549;52.128;21.068;2022-08-19T05:32:37;10.50;;;9.23;;
5060;SDS011;2549;52.128;21.068;2022-08-19T05:35:05;10.67;;;9.60;;
5060;SDS011;2549;52.128;21.068;2022-08-19T05:37:32;14.40;;;9.47;;
5060;SDS011;2549;52.128;21.068;2022-08-19T05:39:59;24.23;;;10.50;;
5060;SDS011;2549;52.128;21.068;2022-08-19T05:42:26;15.43;;;10.20;;
5060;SDS011;2549;52.128;21.068;2022-08-19T05:44:53;15.03;;;9.63;;
5060;SDS011;2549;52.128;21.068;2022-08-19T05:47:20;20.47;;;9.77;;
5060;SDS011;2549;52.128;21.068;2022-08-19T05:49:47;22.83;;;10.50;;
5060;SDS011;2549;52.128;21.068;2022-08-19T05:52:16;17.73;;;11.60;;
5060;SDS011;2549;52.128;21.068;2022-08-19T05:54:44;26.33;;;10.57;;
5060;SDS011;2549;52.128;21.068;2022-08-19T05:57:17;10.37;;;9.20;;
5060;SDS011;2549;52.128;21.068;2022-08-19T05:59:45;17.37;;;9.80;;
5060;SDS011;2549;52.128;21.068;2022-08-19T06:02:18;24.73;;;11.40;;
5060;SDS011;2549;52.128;21.068;2022-08-19T06:04:45;17.40;;;9.40;;
5060;SDS011;2549;52.128;21.068;2022-08-19T06:07:12;22.40;;;10.03;;
5060;SDS011;2549;52.128;21.068;2022-08-19T06:09:39;20.43;;;9.87;;
5060;SDS011;2549;52.128;21.068;2022-08-19T06:12:25;31.70;;;11.30;;
5060;SDS011;2549;52.128;21.068;2022-08-19T06:14:58;13.67;;;10.50;;
5060;SDS011;2549;52.128;21.068;2022-08-19T06:17:30;16.30;;;10.10;;
5060;SDS011;2549;52.128;21.068;2022-08-19T06:19:58;13.00;;;10.93;;
5060;SDS011;2549;52.128;21.068;2022-08-19T06:22:25;19.47;;;10.20;;
5060;SDS011;2549;52.128;21.068;2022-08-19T06:24:54;12.20;;;9.60;;
5060;SDS011;2549;52.128;21.068;2022-08-19T06:27:22;16.30;;;10.67;;
5060;SDS011;2549;52.128;21.068;2022-08-19T06:29:49;15.93;;;9.90;;
5060;SDS011;2549;52.128;21.068;2022-08-19T06:32:16;25.40;;;10.20;;
5060;SDS011;2549;52.128;21.068;2022-08-19T06:34:45;23.67;;;10.70;;
5060;SDS011;2549;52.128;21.068;2022-08-19T06:37:12;14.00;;;10.90;;
5060;SDS011;2549;52.128;21.068;2022-08-19T06:39:40;12.27;;;9.77;;
5060;SDS011;2549;52.128;21.068;2022-08-19T06:42:08;15.20;;;9.93;;
5060;SDS011;2549;52.128;21.068;2022-08-19T06:44:38;12.20;;;9.80;;
5060;SDS011;2549;52.128;21.068;2022-08-19T06:47:09;12.87;;;9.73;;
5060;SDS011;2549;52.128;21.068;2022-08-19T06:49:48;17.20;;;10.43;;
5060;SDS011;2549;52.128;21.068;2022-08-19T06:52:15;19.47;;;10.67;;
5060;SDS011;2549;52.128;21.068;2022-08-19T06:54:43;15.03;;;10.20;;
5060;SDS011;2549;52.128;21.068;2022-08-19T06:57:22;24.33;;;10.77;;
5060;SDS011;2549;52.128;21.068;2022-08-19T06:59:50;20.23;;;10.33;;
5060;SDS011;2549;52.128;21.068;2022-08-19T07:02:18;16.00;;;10.63;;
5060;SDS011;2549;52.128;21.068;2022-08-19T07:04:47;20.93;;;10.70;;
5060;SDS011;2549;52.128;21.068;2022-08-19T07:07:18;20.13;;;10.83;;
5060;SDS011;2549;52.128;21.068;2022-08-19T07:09:48;21.00;;;10.90;;
5060;SDS011;2549;52.128;21.068;2022-08-19T07:12:29;15.73;;;9.63;;
5060;SDS011;2549;52.128;21.068;2022-08-19T07:15:01;11.83;;;10.00;;
5060;SDS011;2549;52.128;21.068;2022-08-19T07:17:30;12.57;;;10.10;;
5060;SDS011;2549;52.128;21.068;2022-08-19T07:20:00;12.50;;;9.30;;
5060;SDS011;2549;52.128;21.068;2022-08-19T07:22:35;17.97;;;11.27;;
5060;SDS011;2549;52.128;21.068;2022-08-19T07:25:06;10.60;;;9.47;;
5060;SDS011;2549;52.128;21.068;2022-08-19T07:27:35;12.63;;;8.70;;
5060;SDS011;2549;52.128;21.068;2022-08-19T07:30:06;17.33;;;9.13;;
5060;SDS011;2549;52.128;21.068;2022-08-19T07:32:37;18.30;;;9.73;;
5060;SDS011;2549;52.128;21.068;2022-08-19T07:35:05;20.73;;;9.23;;
5060;SDS011;2549;52.128;21.068;2022-08-19T07:37:32;11.47;;;9.23;;
5060;SDS011;2549;52.128;21.068;2022-08-19T07:40:01;19.83;;;9.40;;
5060;SDS011;2549;52.128;21.068;2022-08-19T07:42:33;11.00;;;8.63;;
5060;SDS011;2549;52.128;21.068;2022-08-19T07:45:00;20.33;;;9.23;;
5060;SDS011;2549;52.128;21.068;2022-08-19T07:47:27;13.97;;;8.57;;
5060;SDS011;2549;52.128;21.068;2022-08-19T07:50:14;12.53;;;8.17;;
5060;SDS011;2549;52.128;21.068;2022-08-19T07:52:42;11.67;;;8.00;;
5060;SDS011;2549;52.128;21.068;2022-08-19T07:55:14;11.73;;;8.50;;
5060;SDS011;2549;52.128;21.068;2022-08-19T07:58:04;12.73;;;8.93;;
5060;SDS011;2549;52.128;21.068;2022-08-19T08:00:31;14.10;;;9.10;;
5060;SDS011;2549;52.128;21.068;2022-08-19T08:02:58;12.70;;;8.07;;
5060;SDS011;2549;52.128;21.068;2022-08-19T08:05:25;11.50;;;9.40;;
5060;SDS011;2549;52.128;21.068;2022-08-19T08:08:11;12.43;;;9.43;;
5060;SDS011;2549;52.128;21.068;2022-08-19T08:10:57;10.87;;;8.67;;
5060;SDS011;2549;52.128;21.068;2022-08-19T08:13:25;10.27;;;8.50;;
5060;SDS011;2549;52.128;21.068;2022-08-19T08:15:53;12.30;;;9.23;;
5060;SDS011;2549;52.128;21.068;2022-08-19T08:18:21;20.50;;;9.17;;
5060;SDS011;2549;52.128;21.068;2022-08-19T08:20:53;13.83;;;8.40;;
5060;SDS011;2549;52.128;21.068;2022-08-19T08:23:21;12.33;;;8.43;;
5060;SDS011;2549;52.128;21.068;2022-08-19T08:25:53;9.60;;;8.30;;
5060;SDS011;2549;52.128;21.068;2022-08-19T08:28:23;12.90;;;9.10;;
5060;SDS011;2549;52.128;21.068;2022-08-19T08:30:51;14.43;;;8.83;;
5060;SDS011;2549;52.128;21.068;2022-08-19T08:33:22;12.17;;;7.80;;
5060;SDS011;2549;52.128;21.068;2022-08-19T08:35:58;10.30;;;7.70;;
5060;SDS011;2549;52.128;21.068;2022-08-19T08:38:25;18.63;;;8.57;;
5060;SDS011;2549;52.128;21.068;2022-08-19T08:40:54;8.93;;;8.10;;
5060;SDS011;2549;52.128;21.068;2022-08-19T08:43:33;13.17;;;7.60;;
5060;SDS011;2549;52.128;21.068;2022-08-19T08:46:09;15.90;;;8.67;;
5060;SDS011;2549;52.128;21.068;2022-08-19T08:51:19;10.37;;;7.80;;
5060;SDS011;2549;52.128;21.068;2022-08-19T08:53:59;13.23;;;7.30;;
5060;SDS011;2549;52.128;21.068;2022-08-19T08:56:30;16.63;;;7.43;;
5060;SDS011;2549;52.128;21.068;2022-08-19T08:59:02;12.27;;;7.63;;
5060;SDS011;2549;52.128;21.068;2022-08-19T09:01:36;12.37;;;7.40;;
5060;SDS011;2549;52.128;21.068;2022-08-19T09:04:04;7.77;;;6.97;;
5060;SDS011;2549;52.128;21.068;2022-08-19T09:09:50;11.03;;;7.80;;
5060;SDS011;2549;52.128;21.068;2022-08-19T09:15:09;18.83;;;7.43;;
5060;SDS011;2549;52.128;21.068;2022-08-19T09:17:38;9.33;;;7.00;;
5060;SDS011;2549;52.128;21.068;2022-08-19T09:22:36;7.67;;;6.53;;
5060;SDS011;2549;52.128;21.068;2022-08-19T09:25:05;11.23;;;6.80;;
5060;SDS011;2549;52.128;21.068;2022-08-19T09:27:35;8.70;;;7.00;;
5060;SDS011;2549;52.128;21.068;2022-08-19T09:30:20;11.70;;;6.87;;
5060;SDS011;2549;52.128;21.068;2022-08-19T09:32:56;15.37;;;7.70;;
5060;SDS011;2549;52.128;21.068;2022-08-19T09:35:25;13.40;;;6.53;;
5060;SDS011;2549;52.128;21.068;2022-08-19T09:37:55;13.43;;;6.33;;
5060;SDS011;2549;52.128;21.068;2022-08-19T09:40:26;10.97;;;7.07;;
5060;SDS011;2549;52.128;21.068;2022-08-19T09:42:55;7.53;;;6.60;;
5060;SDS011;2549;52.128;21.068;2022-08-19T09:45:23;13.37;;;7.27;;
5060;SDS011;2549;52.128;21.068;2022-08-19T09:47:51;11.30;;;6.00;;
5060;SDS011;2549;52.128;21.068;2022-08-19T09:50:20;22.47;;;6.63;;
5060;SDS011;2549;52.128;21.068;2022-08-19T09:52:49;21.43;;;6.97;;
5060;SDS011;2549;52.128;21.068;2022-08-19T09:55:20;10.57;;;7.23;;
5060;SDS011;2549;52.128;21.068;2022-08-19T09:57:49;16.00;;;6.17;;
5060;SDS011;2549;52.128;21.068;2022-08-19T10:00:16;20.90;;;6.40;;
5060;SDS011;2549;52.128;21.068;2022-08-19T10:02:43;7.60;;;5.80;;
5060;SDS011;2549;52.128;21.068;2022-08-19T10:05:10;10.17;;;6.53;;
5060;SDS011;2549;52.128;21.068;2022-08-19T10:07:56;9.00;;;5.47;;
5060;SDS011;2549;52.128;21.068;2022-08-19T10:10:23;17.23;;;6.67;;
5060;SDS011;2549;52.128;21.068;2022-08-19T10:12:52;6.93;;;6.23;;
5060;SDS011;2549;52.128;21.068;2022-08-19T10:15:19;13.47;;;6.90;;
5060;SDS011;2549;52.128;21.068;2022-08-19T10:17:54;8.17;;;6.40;;
5060;SDS011;2549;52.128;21.068;2022-08-19T10:20:24;9.80;;;6.77;;
5060;SDS011;2549;52.128;21.068;2022-08-19T10:22:51;9.70;;;6.60;;
5060;SDS011;2549;52.128;21.068;2022-08-19T10:25:18;6.33;;;5.80;;
5060;SDS011;2549;52.128;21.068;2022-08-19T10:27:45;8.17;;;7.30;;
5060;SDS011;2549;52.128;21.068;2022-08-19T10:30:16;8.80;;;6.00;;
5060;SDS011;2549;52.128;21.068;2022-08-19T10:32:45;15.33;;;6.93;;
5060;SDS011;2549;52.128;21.068;2022-08-19T10:35:13;9.90;;;6.40;;
5060;SDS011;2549;52.128;21.068;2022-08-19T10:37:47;12.83;;;7.20;;
5060;SDS011;2549;52.128;21.068;2022-08-19T10:40:22;9.00;;;5.80;;
5060;SDS011;2549;52.128;21.068;2022-08-19T10:42:49;11.23;;;6.10;;
5060;SDS011;2549;52.128;21.068;2022-08-19T10:45:16;7.40;;;6.20;;
5060;SDS011;2549;52.128;21.068;2022-08-19T10:47:44;11.37;;;6.57;;
5060;SDS011;2549;52.128;21.068;2022-08-19T10:50:12;10.83;;;6.80;;
5060;SDS011;2549;52.128;21.068;2022-08-19T10:53:03;15.00;;;6.50;;
5060;SDS011;2549;52.128;21.068;2022-08-19T10:55:35;10.90;;;7.17;;
5060;SDS011;2549;52.128;21.068;2022-08-19T10:58:21;7.73;;;7.03;;
5060;SDS011;2549;52.128;21.068;2022-08-19T11:00:52;9.87;;;6.40;;
5060;SDS011;2549;52.128;21.068;2022-08-19T11:03:21;9.93;;;7.00;;
5060;SDS011;2549;52.128;21.068;2022-08-19T11:06:02;7.43;;;6.60;;
5060;SDS011;2549;52.128;21.068;2022-08-19T11:08:31;11.43;;;7.10;;
5060;SDS011;2549;52.128;21.068;2022-08-19T11:11:01;9.63;;;7.37;;
5060;SDS011;2549;52.128;21.068;2022-08-19T11:13:30;14.50;;;8.17;;
5060;SDS011;2549;52.128;21.068;2022-08-19T11:16:00;12.10;;;7.60;;
5060;SDS011;2549;52.128;21.068;2022-08-19T11:18:40;10.67;;;6.67;;
5060;SDS011;2549;52.128;21.068;2022-08-19T11:21:16;11.77;;;7.30;;
5060;SDS011;2549;52.128;21.068;2022-08-19T11:23:55;10.30;;;7.13;;
5060;SDS011;2549;52.128;21.068;2022-08-19T11:26:24;7.07;;;6.37;;
5060;SDS011;2549;52.128;21.068;2022-08-19T11:28:51;22.73;;;7.13;;
5060;SDS011;2549;52.128;21.068;2022-08-19T11:31:21;18.17;;;6.53;;
5060;SDS011;2549;52.128;21.068;2022-08-19T11:33:56;6.73;;;5.80;;
5060;SDS011;2549;52.128;21.068;2022-08-19T11:36:23;8.50;;;6.27;;
5060;SDS011;2549;52.128;21.068;2022-08-19T11:38:50;7.90;;;6.33;;
5060;SDS011;2549;52.128;21.068;2022-08-19T11:41:19;9.77;;;6.40;;
5060;SDS011;2549;52.128;21.068;2022-08-19T11:43:49;12.30;;;6.67;;
5060;SDS011;2549;52.128;21.068;2022-08-19T11:46:18;9.37;;;6.17;;
5060;SDS011;2549;52.128;21.068;2022-08-19T11:48:45;10.63;;;5.80;;
5060;SDS011;2549;52.128;21.068;2022-08-19T11:51:14;6.20;;;5.60;;
5060;SDS011;2549;52.128;21.068;2022-08-19T11:53:44;11.43;;;6.13;;
5060;SDS011;2549;52.128;21.068;2022-08-19T11:56:12;9.33;;;7.47;;
5060;SDS011;2549;52.128;21.068;2022-08-19T11:58:39;11.23;;;7.10;;
5060;SDS011;2549;52.128;21.068;2022-08-19T12:01:10;10.67;;;7.00;;
5060;SDS011;2549;52.128;21.068;2022-08-19T12:03:38;13.17;;;6.60;;
5060;SDS011;2549;52.128;21.068;2022-08-19T12:06:06;14.07;;;6.10;;
5060;SDS011;2549;52.128;21.068;2022-08-19T12:08:41;12.50;;;5.80;;
5060;SDS011;2549;52.128;21.068;2022-08-19T12:11:10;8.30;;;6.87;;
5060;SDS011;2549;52.128;21.068;2022-08-19T12:13:38;16.50;;;7.23;;
5060;SDS011;2549;52.128;21.068;2022-08-19T12:16:14;8.37;;;7.03;;
5060;SDS011;2549;52.128;21.068;2022-08-19T12:18:46;8.73;;;6.10;;
5060;SDS011;2549;52.128;21.068;2022-08-19T12:21:14;11.10;;;6.50;;
5060;SDS011;2549;52.128;21.068;2022-08-19T12:23:43;11.10;;;6.33;;
5060;SDS011;2549;52.128;21.068;2022-08-19T12:26:11;8.60;;;6.40;;
5060;SDS011;2549;52.128;21.068;2022-08-19T12:28:38;13.53;;;5.50;;
5060;SDS011;2549;52.128;21.068;2022-08-19T12:31:05;8.73;;;6.07;;
5060;SDS011;2549;52.128;21.068;2022-08-19T12:33:32;10.40;;;6.53;;
5060;SDS011;2549;52.128;21.068;2022-08-19T12:36:00;9.27;;;6.23;;
5060;SDS011;2549;52.128;21.068;2022-08-19T12:38:29;8.40;;;5.63;;
5060;SDS011;2549;52.128;21.068;2022-08-19T12:40:56;9.43;;;5.80;;
5060;SDS011;2549;52.128;21.068;2022-08-19T12:43:25;17.20;;;5.77;;
5060;SDS011;2549;52.128;21.068;2022-08-19T12:45:53;18.60;;;5.77;;
5060;SDS011;2549;52.128;21.068;2022-08-19T12:48:21;6.67;;;5.20;;
5060;SDS011;2549;52.128;21.068;2022-08-19T12:51:00;9.47;;;5.70;;
5060;SDS011;2549;52.128;21.068;2022-08-19T12:53:32;7.27;;;5.70;;
5060;SDS011;2549;52.128;21.068;2022-08-19T12:56:04;12.10;;;5.23;;
5060;SDS011;2549;52.128;21.068;2022-08-19T12:58:35;13.07;;;5.50;;
5060;SDS011;2549;52.128;21.068;2022-08-19T13:01:09;7.93;;;6.00;;
5060;SDS011;2549;52.128;21.068;2022-08-19T13:03:44;8.87;;;5.70;;
5060;SDS011;2549;52.128;21.068;2022-08-19T13:06:12;16.63;;;5.60;;
5060;SDS011;2549;52.128;21.068;2022-08-19T13:08:44;7.60;;;5.30;;
5060;SDS011;2549;52.128;21.068;2022-08-19T13:11:13;17.53;;;5.53;;
5060;SDS011;2549;52.128;21.068;2022-08-19T13:13:44;9.43;;;6.03;;
5060;SDS011;2549;52.128;21.068;2022-08-19T13:16:14;9.60;;;4.87;;
5060;SDS011;2549;52.128;21.068;2022-08-19T13:18:42;16.93;;;6.80;;
5060;SDS011;2549;52.128;21.068;2022-08-19T13:21:13;10.43;;;5.60;;
5060;SDS011;2549;52.128;21.068;2022-08-19T13:23:40;6.80;;;5.70;;
5060;SDS011;2549;52.128;21.068;2022-08-19T13:26:08;18.27;;;5.77;;
5060;SDS011;2549;52.128;21.068;2022-08-19T13:28:36;14.43;;;5.10;;
5060;SDS011;2549;52.128;21.068;2022-08-19T13:31:24;8.13;;;5.40;;
5060;SDS011;2549;52.128;21.068;2022-08-19T13:34:12;17.20;;;6.20;;
5060;SDS011;2549;52.128;21.068;2022-08-19T13:36:39;6.43;;;5.83;;
5060;SDS011;2549;52.128;21.068;2022-08-19T13:39:06;11.50;;;4.93;;
5060;SDS011;2549;52.128;21.068;2022-08-19T13:41:35;8.00;;;5.23;;
5060;SDS011;2549;52.128;21.068;2022-08-19T13:44:03;8.43;;;5.50;;
5060;SDS011;2549;52.128;21.068;2022-08-19T13:46:32;7.23;;;5.30;;
5060;SDS011;2549;52.128;21.068;2022-08-19T13:48:59;7.40;;;5.30;;
5060;SDS011;2549;52.128;21.068;2022-08-19T13:51:26;9.00;;;4.87;;
5060;SDS011;2549;52.128;21.068;2022-08-19T13:53:53;6.40;;;4.57;;
5060;SDS011;2549;52.128;21.068;2022-08-19T13:56:21;11.73;;;5.53;;
5060;SDS011;2549;52.128;21.068;2022-08-19T13:58:51;7.93;;;4.77;;
5060;SDS011;2549;52.128;21.068;2022-08-19T14:01:20;7.77;;;3.80;;
5060;SDS011;2549;52.128;21.068;2022-08-19T14:03:49;6.13;;;4.63;;
5060;SDS011;2549;52.128;21.068;2022-08-19T14:06:17;4.33;;;4.03;;
5060;SDS011;2549;52.128;21.068;2022-08-19T14:08:45;6.17;;;4.27;;
5060;SDS011;2549;52.128;21.068;2022-08-19T14:11:12;8.93;;;4.43;;
5060;SDS011;2549;52.128;21.068;2022-08-19T14:13:39;5.97;;;4.00;;
5060;SDS011;2549;52.128;21.068;2022-08-19T14:16:15;6.13;;;4.80;;
5060;SDS011;2549;52.128;21.068;2022-08-19T14:18:42;7.43;;;5.40;;
5060;SDS011;2549;52.128;21.068;2022-08-19T14:21:14;8.73;;;4.70;;
5060;SDS011;2549;52.128;21.068;2022-08-19T14:23:43;8.23;;;4.40;;
5060;SDS011;2549;52.128;21.068;2022-08-19T14:26:12;11.83;;;4.13;;
5060;SDS011;2549;52.128;21.068;2022-08-19T14:28:41;8.43;;;4.50;;
5060;SDS011;2549;52.128;21.068;2022-08-19T14:31:09;7.90;;;4.67;;
5060;SDS011;2549;52.128;21.068;2022-08-19T14:33:45;8.63;;;3.97;;
5060;SDS011;2549;52.128;21.068;2022-08-19T14:36:13;6.90;;;4.07;;
5060;SDS011;2549;52.128;21.068;2022-08-19T14:38:40;6.70;;;4.67;;
5060;SDS011;2549;52.128;21.068;2022-08-19T14:41:18;5.30;;;4.70;;
5060;SDS011;2549;52.128;21.068;2022-08-19T14:43:48;5.93;;;4.20;;
5060;SDS011;2549;52.128;21.068;2022-08-19T14:46:21;13.23;;;4.30;;
5060;SDS011;2549;52.128;21.068;2022-08-19T14:48:53;9.40;;;3.83;;
5060;SDS011;2549;52.128;21.068;2022-08-19T14:51:22;4.77;;;4.13;;
5060;SDS011;2549;52.128;21.068;2022-08-19T14:53:50;12.93;;;3.83;;
5060;SDS011;2549;52.128;21.068;2022-08-19T14:56:19;8.23;;;4.27;;
5060;SDS011;2549;52.128;21.068;2022-08-19T14:58:48;7.90;;;4.07;;
5060;SDS011;2549;52.128;21.068;2022-08-19T15:01:18;7.33;;;4.80;;
5060;SDS011;2549;52.128;21.068;2022-08-19T15:03:48;7.00;;;4.20;;
5060;SDS011;2549;52.128;21.068;2022-08-19T15:06:15;5.60;;;4.00;;
5060;SDS011;2549;52.128;21.068;2022-08-19T15:08:42;8.90;;;4.13;;
5060;SDS011;2549;52.128;21.068;2022-08-19T15:11:12;8.07;;;4.00;;
5060;SDS011;2549;52.128;21.068;2022-08-19T15:13:43;11.53;;;4.13;;
5060;SDS011;2549;52.128;21.068;2022-08-19T15:16:13;5.60;;;4.50;;
5060;SDS011;2549;52.128;21.068;2022-08-19T15:18:44;6.40;;;4.10;;